This is the latest recevied weather packets stored in our database for station/object N4AR. If no packets are shown the sender has not sent any weather packets the latest 10 day(s).
| Time | Temp. | Humidity | Pressure | Rain* | Wind** | Luminosity | Snow |
|---|---|---|---|---|---|---|---|
| 1777926077 | 28.33° C | 27% | 1012.6 hPa | 0 mm | - | 644 W/m² | - |
| 1777925774 | 27.78° C | 27% | 1012.6 hPa | 0 mm | - | 656 W/m² | - |
| 1777925472 | 27.78° C | 27% | 1012.7 hPa | 0 mm | - | 672 W/m² | - |
| 1777925168 | 28.33° C | 26% | 1012.7 hPa | 0 mm | - | 685 W/m² | - |
| 1777924865 | 28.33° C | 28% | 1012.8 hPa | 0 mm | - | 697 W/m² | - |
| 1777924561 | 28.33° C | 26% | 1012.7 hPa | 0 mm | - | 702 W/m² | - |
| 1777924257 | 28.33° C | 27% | 1013 hPa | 0 mm | - | 750 W/m² | - |
| 1777923954 | 28.33° C | 28% | 1013.1 hPa | 0 mm | - | 745 W/m² | - |
| 1777923649 | 28.33° C | 27% | 1013.2 hPa | 0 mm | - | 750 W/m² | - |
| 1777923346 | 28.33° C | 28% | 1013.1 hPa | 0 mm | - | 766 W/m² | - |
| 1777923045 | 27.78° C | 28% | 1013.3 hPa | 0 mm | - | 772 W/m² | - |
| 1777922743 | 27.22° C | 28% | 1013.2 hPa | 0 mm | - | 780 W/m² | - |
| 1777922440 | 27.78° C | 29% | 1013.2 hPa | 0 mm | - | 222 W/m² | - |
| 1777922138 | 27.78° C | 28% | 1013.4 hPa | 0 mm | - | 817 W/m² | - |
| 1777921834 | 27.78° C | 30% | 1013.2 hPa | 0 mm | - | 821 W/m² | - |
| 1777921531 | 27.22° C | 31% | 1013.4 hPa | 0 mm | - | 834 W/m² | - |
| 1777921226 | 27.22° C | 30% | 1013.5 hPa | 0 mm | - | 845 W/m² | - |
| 1777920925 | 26.67° C | 30% | 1013.7 hPa | 0 mm | - | 882 W/m² | - |
| 1777920620 | 25.56° C | 33% | 1013.8 hPa | 0 mm | - | 772 W/m² | - |
| 1777920315 | 26.67° C | 30% | 1013.9 hPa | 0 mm | - | 538 W/m² | - |
| 1777920011 | 26.11° C | 30% | 1013.9 hPa | 0 mm | - | 649 W/m² | - |
| 1777919709 | 26.11° C | 31% | 1014 hPa | 0 mm | - | 779 W/m² | - |
| 1777919407 | 25.56° C | 33% | 1014.2 hPa | 0 mm | - | 715 W/m² | - |
| 1777919103 | 25° C | 34% | 1014.3 hPa | 0 mm | - | 888 W/m² | - |
| 1777918800 | 25.56° C | 32% | 1014.3 hPa | 0 mm | - | 443 W/m² | - |
* Rain latest hour (hover to see other rain measurements)
** Current wind speed in m/s (hover to see current wind gust speed)